createdAt,value
2023-05-10T00:03:25.545Z,4.30
2023-05-10T00:07:27.396Z,4.10
2023-05-10T00:11:29.073Z,3.60
2023-05-10T00:15:31.641Z,3.78
2023-05-10T00:19:33.583Z,3.95
2023-05-10T00:23:35.456Z,4.07
2023-05-10T00:27:37.234Z,4.70
2023-05-10T00:31:39.091Z,4.13
2023-05-10T00:35:41.337Z,4.85
2023-05-10T00:39:44.409Z,4.20
2023-05-10T00:43:46.725Z,4.25
2023-05-10T00:47:48.621Z,5.80
2023-05-10T00:51:50.978Z,4.95
2023-05-10T00:55:52.729Z,3.88
2023-05-10T00:59:54.653Z,4.60
2023-05-10T01:03:56.862Z,4.55
2023-05-10T01:07:58.636Z,4.00
2023-05-10T01:12:01.960Z,6.15
2023-05-10T01:16:05.992Z,6.32
2023-05-10T01:20:10.150Z,4.93
2023-05-10T01:24:41.216Z,6.53
2023-05-10T01:29:02.110Z,6.05
2023-05-10T01:33:47.288Z,4.00
2023-05-10T01:38:08.912Z,4.15
2023-05-10T01:42:26.935Z,4.18
2023-05-10T01:46:36.392Z,4.88
2023-05-10T01:50:44.303Z,8.63
2023-05-10T01:54:53.102Z,4.57
2023-05-10T01:58:56.615Z,4.57
2023-05-10T02:02:58.955Z,5.78
2023-05-10T02:07:01.161Z,4.75
2023-05-10T02:11:04.732Z,4.63
2023-05-10T02:15:08.280Z,4.45
2023-05-10T02:19:13.068Z,3.88
2023-05-10T02:23:16.445Z,7.32
2023-05-10T02:27:20.898Z,6.30
2023-05-10T02:31:24.072Z,3.72
2023-05-10T02:35:27.616Z,4.65
2023-05-10T02:39:32.157Z,5.10
2023-05-10T02:43:34.862Z,3.92
2023-05-10T02:47:36.824Z,4.30
2023-05-10T02:51:43.503Z,4.97
2023-05-10T02:55:48.717Z,4.70
2023-05-10T02:59:50.464Z,5.10
2023-05-10T03:03:52.220Z,4.47
2023-05-10T03:07:55.266Z,4.07
2023-05-10T03:12:28.035Z,4.93
2023-05-10T03:16:42.113Z,4.85
2023-05-10T03:20:52.027Z,7.18
2023-05-10T03:25:00.961Z,5.55
2023-05-10T03:29:07.801Z,5.18
2023-05-10T03:33:10.313Z,3.95
2023-05-10T03:37:16.250Z,5.45
2023-05-10T03:41:18.811Z,3.75
2023-05-10T03:45:21.223Z,4.65
2023-05-10T03:49:24.018Z,6.25
2023-05-10T03:53:26.284Z,7.07
2023-05-10T03:57:28.397Z,8.38
2023-05-10T04:01:30.632Z,5.32
2023-05-10T04:05:32.749Z,4.05
2023-05-10T04:09:35.114Z,4.32
2023-05-10T04:13:39.246Z,5.93
2023-05-10T04:17:41.332Z,4.32
2023-05-10T04:21:43.256Z,6.25
2023-05-10T04:25:46.170Z,4.45
2023-05-10T04:29:48.128Z,4.18
2023-05-10T04:33:51.127Z,4.28
2023-05-10T04:37:53.523Z,5.00
2023-05-10T04:41:56.097Z,4.22
2023-05-10T04:45:59.020Z,5.65
2023-05-10T04:50:01.071Z,4.53
2023-05-10T04:54:06.547Z,6.10
2023-05-10T04:58:09.223Z,6.22
2023-05-10T05:02:11.033Z,5.55
2023-05-10T05:06:12.943Z,4.80
2023-05-10T05:10:15.144Z,5.07
2023-05-10T05:14:17.033Z,4.95
2023-05-10T05:18:18.986Z,4.80
2023-05-10T05:22:27.921Z,4.45
2023-05-10T05:26:29.614Z,6.78
2023-05-10T05:30:31.311Z,5.72
2023-05-10T05:34:33.030Z,5.53
2023-05-10T05:38:34.705Z,5.38
2023-05-10T05:42:36.458Z,5.13
2023-05-10T05:46:38.273Z,5.07
2023-05-10T05:50:40.033Z,5.75
2023-05-10T05:54:41.782Z,6.57
2023-05-10T05:58:43.478Z,7.05
2023-05-10T06:02:45.450Z,6.45
2023-05-10T06:06:47.359Z,5.05
2023-05-10T06:10:49.195Z,7.70
2023-05-10T06:14:50.916Z,7.07
2023-05-10T06:18:52.630Z,5.00
2023-05-10T06:22:54.388Z,6.03
2023-05-10T06:26:56.150Z,7.18
2023-05-10T06:30:57.837Z,10.88
2023-05-10T06:34:59.538Z,6.78
2023-05-10T06:39:01.404Z,8.18
2023-05-10T06:43:03.278Z,7.10
2023-05-10T06:47:05.460Z,6.50
2023-05-10T06:51:07.157Z,5.85
2023-05-10T06:55:09.802Z,6.35
2023-05-10T06:59:11.654Z,7.78
2023-05-10T07:03:13.515Z,8.07
2023-05-10T07:07:15.779Z,7.10
2023-05-10T07:11:17.528Z,7.10
2023-05-10T07:15:19.546Z,6.28
2023-05-10T07:19:21.510Z,7.22
2023-05-10T07:23:23.265Z,9.02
2023-05-10T07:27:25.005Z,8.02
2023-05-10T07:31:26.705Z,5.88
2023-05-10T07:35:28.469Z,9.45
2023-05-10T07:39:30.316Z,7.50
2023-05-10T07:43:32.016Z,4.97
2023-05-10T07:47:33.791Z,4.53
2023-05-10T07:51:35.592Z,5.47
2023-05-10T07:55:37.285Z,6.72
2023-05-10T07:59:39.075Z,7.38
2023-05-10T08:03:40.899Z,4.05
2023-05-10T08:07:43.452Z,3.80
2023-05-10T08:11:45.323Z,4.60
2023-05-10T08:15:47.831Z,6.78
2023-05-10T08:19:49.584Z,6.05
2023-05-10T08:23:51.311Z,5.03
2023-05-10T08:27:53.000Z,4.50
2023-05-10T08:31:54.707Z,7.97
2023-05-10T08:35:56.436Z,6.43
2023-05-10T08:39:58.135Z,5.15
2023-05-10T08:44:03.670Z,10.23
2023-05-10T08:48:07.366Z,5.25
2023-05-10T08:52:09.348Z,3.97
2023-05-10T08:56:11.224Z,7.25
2023-05-10T09:00:14.428Z,3.75
2023-05-10T09:04:16.177Z,4.38
2023-05-10T09:08:18.650Z,3.50
2023-05-10T09:12:20.483Z,3.85
2023-05-10T09:16:22.750Z,5.00
2023-05-10T09:20:25.115Z,4.10
2023-05-10T09:24:28.113Z,5.85
2023-05-10T09:28:33.064Z,6.18
2023-05-10T09:32:39.889Z,2.97
2023-05-10T09:36:54.843Z,3.22
2023-05-10T09:40:58.721Z,2.95
2023-05-10T09:45:07.703Z,3.28
2023-05-10T09:49:09.401Z,3.38
2023-05-10T09:53:15.799Z,2.67
2023-05-10T09:57:25.041Z,4.10
2023-05-10T10:01:27.479Z,3.90
2023-05-10T10:05:34.728Z,2.75
2023-05-10T10:13:38.459Z,4.55
2023-05-10T10:17:40.957Z,4.68
2023-05-10T10:21:42.768Z,3.40
2023-05-10T10:25:46.156Z,4.60
2023-05-10T10:30:01.842Z,5.30
2023-05-10T10:34:08.741Z,4.03
2023-05-10T10:38:10.527Z,3.42
2023-05-10T10:42:12.312Z,4.88
2023-05-10T10:46:15.336Z,4.82
2023-05-10T10:50:17.354Z,3.80
2023-05-10T10:54:28.813Z,3.85
2023-05-10T10:58:34.996Z,2.80
2023-05-10T11:02:49.111Z,4.97
2023-05-10T11:06:51.008Z,4.03
2023-05-10T11:11:01.822Z,4.13
2023-05-10T11:15:03.752Z,4.55
2023-05-10T11:19:12.017Z,2.92
2023-05-10T11:23:16.756Z,2.83
2023-05-10T11:27:18.849Z,2.67
2023-05-10T11:31:21.398Z,5.47
2023-05-10T11:35:23.135Z,5.88
2023-05-10T11:39:33.047Z,4.10
2023-05-10T11:43:34.803Z,3.28
2023-05-10T11:47:38.135Z,3.13
2023-05-10T11:51:40.445Z,3.13
2023-05-10T11:55:42.276Z,2.63
2023-05-10T11:59:43.996Z,3.05
2023-05-10T12:03:46.221Z,3.13
2023-05-10T12:07:48.063Z,2.30
2023-05-10T12:11:49.794Z,4.25
2023-05-10T12:15:51.535Z,2.58
2023-05-10T12:19:53.252Z,2.05
2023-05-10T12:23:59.704Z,2.45
2023-05-10T12:28:05.215Z,2.15
2023-05-10T12:32:06.989Z,2.30
2023-05-10T12:36:10.606Z,2.53
2023-05-10T12:40:12.664Z,2.47
2023-05-10T12:44:14.418Z,2.83
2023-05-10T12:48:16.617Z,3.78
2023-05-10T12:52:18.347Z,2.47
2023-05-10T12:56:20.090Z,3.53
2023-05-10T13:00:21.891Z,2.47
2023-05-10T13:04:23.770Z,2.88
2023-05-10T13:08:25.964Z,3.08
2023-05-10T13:12:27.708Z,2.17
2023-05-10T13:16:29.590Z,2.70
2023-05-10T13:20:31.397Z,2.88
2023-05-10T13:24:33.140Z,2.40
2023-05-10T13:28:34.862Z,1.73
2023-05-10T13:32:36.771Z,2.08
2023-05-10T13:36:39.148Z,2.05
2023-05-10T13:40:40.887Z,2.03
2023-05-10T13:44:42.700Z,3.22
2023-05-10T13:48:44.420Z,2.28
2023-05-10T13:52:46.221Z,2.25
2023-05-10T13:56:49.488Z,4.40
2023-05-10T14:00:51.224Z,2.50
2023-05-10T14:04:53.153Z,1.75
2023-05-10T14:08:54.901Z,1.83
2023-05-10T14:12:56.718Z,2.72
2023-05-10T14:16:58.510Z,2.40
2023-05-10T14:21:00.284Z,2.60
2023-05-10T14:25:02.082Z,2.58
2023-05-10T14:29:04.075Z,2.38
2023-05-10T14:33:05.923Z,2.50
2023-05-10T14:37:12.486Z,2.58
2023-05-10T14:41:16.031Z,3.60
2023-05-10T14:45:18.200Z,2.78
2023-05-10T14:49:20.085Z,2.17
2023-05-10T14:53:21.886Z,2.55
2023-05-10T14:57:23.640Z,2.35
2023-05-10T15:01:25.473Z,3.20
2023-05-10T15:05:27.787Z,2.38
2023-05-10T15:09:30.090Z,2.40
2023-05-10T15:13:31.835Z,3.03
2023-05-10T15:17:33.858Z,2.00
2023-05-10T15:21:39.774Z,2.17
2023-05-10T15:25:41.812Z,3.33
2023-05-10T15:29:43.766Z,2.45
2023-05-10T15:33:45.444Z,2.25
2023-05-10T15:37:49.368Z,1.73
2023-05-10T15:41:52.029Z,2.75
2023-05-10T15:45:53.785Z,2.67
2023-05-10T15:49:55.743Z,1.80
2023-05-10T15:54:06.600Z,5.35
2023-05-10T15:58:09.688Z,1.95
2023-05-10T16:02:12.583Z,2.30
2023-05-10T16:06:14.464Z,2.38
2023-05-10T16:10:16.312Z,3.55
2023-05-10T16:14:21.348Z,3.13
2023-05-10T16:18:23.334Z,2.67
2023-05-10T16:22:28.775Z,2.17
2023-05-10T16:26:30.704Z,3.97
2023-05-10T16:30:32.572Z,4.70
2023-05-10T16:34:34.300Z,3.22
2023-05-10T16:38:36.093Z,2.63
2023-05-10T16:42:37.952Z,1.92
2023-05-10T16:46:39.745Z,1.85
2023-05-10T16:50:44.673Z,1.70
2023-05-10T16:54:46.643Z,2.58
2023-05-10T16:58:51.518Z,3.90
2023-05-10T17:02:54.865Z,2.50
2023-05-10T17:06:56.795Z,2.97
2023-05-10T17:11:01.865Z,3.83
2023-05-10T17:15:03.902Z,4.20
2023-05-10T17:19:06.969Z,6.47
2023-05-10T17:23:08.818Z,2.60
2023-05-10T17:27:10.584Z,5.03
2023-05-10T17:31:12.382Z,4.28
2023-05-10T17:35:14.513Z,2.95
2023-05-10T17:39:16.419Z,1.60
2023-05-10T17:43:18.564Z,1.80
2023-05-10T17:47:20.730Z,1.40
2023-05-10T17:51:22.400Z,1.27
2023-05-10T17:55:24.239Z,3.53
2023-05-10T17:59:26.029Z,1.65
2023-05-10T18:03:27.805Z,1.15
2023-05-10T18:07:30.177Z,2.08
2023-05-10T18:11:35.761Z,0.73
2023-05-10T18:15:43.896Z,1.20
2023-05-10T18:19:45.648Z,1.20
2023-05-10T18:23:47.581Z,4.13
2023-05-10T18:27:49.425Z,1.50
2023-05-10T18:31:51.237Z,1.52
2023-05-10T18:35:52.995Z,1.38
2023-05-10T18:39:54.781Z,2.17
2023-05-10T18:43:56.533Z,1.00
2023-05-10T18:47:58.354Z,1.20
2023-05-10T18:52:00.204Z,0.85
2023-05-10T18:56:01.970Z,0.82
2023-05-10T19:00:04.327Z,1.25
2023-05-10T19:04:08.035Z,4.40
2023-05-10T19:08:09.749Z,1.15
2023-05-10T19:12:11.519Z,1.38
2023-05-10T19:16:15.974Z,3.72
2023-05-10T19:20:17.851Z,2.22
2023-05-10T19:24:23.232Z,1.33
2023-05-10T19:28:25.373Z,1.40
2023-05-10T19:32:27.500Z,1.10
2023-05-10T19:36:29.213Z,2.63
2023-05-10T19:40:30.983Z,1.48
2023-05-10T19:44:32.997Z,1.30
2023-05-10T19:48:34.672Z,1.38
2023-05-10T19:52:36.390Z,1.60
2023-05-10T19:56:38.105Z,1.67
2023-05-10T20:00:39.878Z,1.83
2023-05-10T20:04:41.586Z,1.65
2023-05-10T20:08:43.600Z,1.92
2023-05-10T20:12:51.178Z,2.13
2023-05-10T20:16:53.060Z,1.60
2023-05-10T20:20:56.083Z,1.75
2023-05-10T20:24:58.539Z,1.48
2023-05-10T20:29:00.321Z,1.58
2023-05-10T20:33:04.171Z,1.77
2023-05-10T20:37:06.269Z,1.50
2023-05-10T20:41:07.958Z,1.70
2023-05-10T20:45:10.192Z,1.60
2023-05-10T20:49:11.924Z,2.83
2023-05-10T20:53:14.698Z,2.20
2023-05-10T20:57:16.403Z,2.55
2023-05-10T21:01:18.148Z,2.88
2023-05-10T21:05:19.888Z,6.30
2023-05-10T21:09:21.689Z,2.20
2023-05-10T21:13:23.368Z,2.35
2023-05-10T21:17:25.135Z,3.42
2023-05-10T21:21:26.883Z,3.05
2023-05-10T21:25:28.580Z,2.80
2023-05-10T21:29:30.696Z,2.38
2023-05-10T21:33:32.437Z,2.60
2023-05-10T21:37:34.157Z,3.30
2023-05-10T21:41:35.865Z,2.78
2023-05-10T21:45:37.739Z,3.80
2023-05-10T21:49:39.438Z,2.67
2023-05-10T21:53:41.191Z,3.42
2023-05-10T21:57:42.945Z,3.10
2023-05-10T22:01:44.853Z,3.58
2023-05-10T22:05:46.684Z,5.60
2023-05-10T22:09:48.438Z,3.17
2023-05-10T22:13:50.130Z,3.35
2023-05-10T22:17:51.974Z,3.55
2023-05-10T22:21:54.050Z,3.45
2023-05-10T22:26:00.201Z,2.88
2023-05-10T22:30:02.773Z,3.45
2023-05-10T22:34:06.720Z,3.58
2023-05-10T22:38:08.382Z,3.13
2023-05-10T22:42:10.062Z,3.20
2023-05-10T22:46:12.146Z,3.80
2023-05-10T22:50:14.449Z,4.30
2023-05-10T22:54:16.148Z,2.60
2023-05-10T22:58:18.192Z,4.70
2023-05-10T23:02:19.967Z,3.33
2023-05-10T23:06:22.104Z,4.97
2023-05-10T23:10:24.060Z,4.88
2023-05-10T23:14:25.839Z,3.95
2023-05-10T23:18:27.558Z,3.30
2023-05-10T23:22:29.377Z,4.78
2023-05-10T23:26:31.065Z,2.95
2023-05-10T23:30:32.779Z,3.95
2023-05-10T23:34:34.634Z,4.15
2023-05-10T23:38:38.239Z,4.10
2023-05-10T23:42:40.254Z,4.40
2023-05-10T23:46:42.021Z,4.40
2023-05-10T23:50:46.629Z,4.15
2023-05-10T23:54:48.368Z,5.70
2023-05-10T23:58:50.198Z,4.60
